Time;durP1;ratioP1;P1;durP2;ratioP2;P2;SDS_P1;SDS_P2;PMS_P1;PMS_P2;Temp;Humidity;BMP_temperature;BMP_pressure;BME280_temperature;BME280_humidity;BME280_pressure;Samples;Min_cycle;Max_cycle;Signal;HPM_P1;HPM_P2
2023/05/08 00:04:54;;;;;;;10.10;5.33;;;8.60;99.90;;;;;;10119444;29;20199;-80
2023/05/08 00:10:15;;;;;;;7.40;4.90;;;8.60;99.90;;;;;;10121115;29;20491;-75
2023/05/08 00:15:36;;;;;;;9.53;4.77;;;8.60;99.90;;;;;;10121676;29;20197;-79
2023/05/08 00:20:58;;;;;;;11.10;7.53;;;8.50;99.90;;;;;;10133835;29;20214;-75
2023/05/08 00:26:20;;;;;;;8.37;5.50;;;8.50;99.90;;;;;;10138636;29;20203;-75
2023/05/08 00:31:41;;;;;;;8.93;5.20;;;8.40;1.00;;;;;;10120348;29;20282;-75
2023/05/08 00:37:02;;;;;;;9.83;5.03;;;8.30;1.00;;;;;;10152757;29;20209;-76
2023/05/08 00:42:23;;;;;;;7.50;4.80;;;8.20;1.00;;;;;;10158809;29;20449;-79
2023/05/08 00:47:44;;;;;;;11.47;5.63;;;8.20;1.00;;;;;;10162463;29;20218;-78
2023/05/08 00:53:06;;;;;;;12.97;6.03;;;8.10;1.00;;;;;;10118267;29;20544;-75
2023/05/08 00:58:29;;;;;;;11.00;6.00;;;8.20;1.00;;;;;;10119480;29;20364;-77
2023/05/08 01:03:50;;;;;;;12.90;5.77;;;8.00;1.00;;;;;;10106702;29;20208;-76
2023/05/08 01:09:11;;;;;;;10.60;5.50;;;7.90;1.00;;;;;;10156772;29;20203;-78
2023/05/08 01:15:10;;;;;;;9.00;5.83;;;7.80;1.00;;;;;;10149098;29;20233;-77
2023/05/08 01:20:48;;;;;;;8.57;5.57;;;7.70;1.00;;;;;;10151361;29;20230;-77
2023/05/08 01:26:46;;;;;;;10.67;5.73;;;7.60;1.00;;;;;;10153718;29;20210;-79
2023/05/08 01:32:22;;;;;;;13.97;6.97;;;7.40;1.00;;;;;;10062427;29;20680;-79
2023/05/08 01:37:55;;;;;;;11.23;6.37;;;7.30;1.00;;;;;;10064686;29;20217;-78
2023/05/08 01:44:04;;;;;;;17.07;8.20;;;7.30;26.50;;;;;;10076195;29;20465;-77
2023/05/08 01:49:33;;;;;;;18.70;8.63;;;7.30;53.10;;;;;;10062277;29;20578;-79
2023/05/08 01:54:58;;;;;;;19.23;8.67;;;7.30;98.20;;;;;;10034175;29;20271;-75
2023/05/08 02:00:22;;;;;;;13.23;8.03;;;7.20;99.90;;;;;;9986449;29;21000;-75
2023/05/08 02:05:47;;;;;;;13.53;7.93;;;7.20;99.90;;;;;;10058021;29;20510;-77
2023/05/08 02:11:11;;;;;;;15.47;9.10;;;7.10;99.90;;;;;;10117678;29;20228;-77
2023/05/08 02:16:33;;;;;;;12.73;7.63;;;7.00;99.90;;;;;;10115347;29;20207;-77
2023/05/08 02:21:57;;;;;;;14.17;6.67;;;7.00;99.90;;;;;;10117441;29;20233;-77
2023/05/08 02:27:21;;;;;;;14.33;7.67;;;6.90;99.90;;;;;;10117449;29;20233;-77
2023/05/08 02:32:45;;;;;;;12.90;7.00;;;6.80;99.90;;;;;;10116289;29;20255;-76
2023/05/08 02:38:09;;;;;;;13.57;7.70;;;6.70;99.90;;;;;;10116248;29;20285;-74
2023/05/08 02:43:31;;;;;;;13.20;7.30;;;6.70;99.90;;;;;;10129352;29;20227;-77
2023/05/08 02:49:02;;;;;;;14.30;7.40;;;6.60;99.90;;;;;;10120396;29;20230;-79
2023/05/08 02:54:44;;;;;;;14.43;8.50;;;6.50;1.00;;;;;;10123006;29;20258;-81
2023/05/08 03:00:26;;;;;;;12.23;7.13;;;6.50;1.00;;;;;;10122012;29;20213;-79
2023/05/08 03:05:55;;;;;;;16.23;8.40;;;6.50;1.00;;;;;;10122201;29;20439;-76
2023/05/08 03:11:24;;;;;;;15.60;8.13;;;6.50;1.00;;;;;;10123438;29;20226;-76
2023/05/08 03:16:48;;;;;;;10.67;7.67;;;6.40;1.00;;;;;;10134644;29;20204;-79
2023/05/08 03:22:10;;;;;;;14.60;8.00;;;6.40;1.00;;;;;;10135526;29;20223;-75
2023/05/08 03:27:33;;;;;;;13.73;7.53;;;6.30;1.00;;;;;;10121796;29;20207;-78
2023/05/08 03:32:58;;;;;;;14.50;7.47;;;6.40;1.00;;;;;;10121393;29;20259;-74
2023/05/08 03:38:19;;;;;;;15.97;8.00;;;6.30;1.00;;;;;;10121827;29;20212;-74
2023/05/08 03:43:41;;;;;;;24.33;9.77;;;6.20;1.00;;;;;;10121039;29;20204;-75
2023/05/08 03:49:05;;;;;;;21.57;9.83;;;6.20;1.00;;;;;;10107319;29;20287;-76
2023/05/08 03:54:29;;;;;;;19.13;11.40;;;6.30;1.00;;;;;;10133353;29;20534;-76
2023/05/08 04:00:05;;;;;;;18.90;11.53;;;6.30;1.00;;;;;;10133093;29;20205;-74
2023/05/08 04:05:50;;;;;;;20.53;10.63;;;6.30;1.00;;;;;;10120405;29;20205;-75
2023/05/08 04:11:24;;;;;;;17.90;10.57;;;6.30;1.00;;;;;;10119964;29;20227;-74
2023/05/08 04:16:51;;;;;;;20.00;11.60;;;6.40;75.90;;;;;;10119776;29;20203;-74
2023/05/08 04:22:13;;;;;;;17.03;10.47;;;6.50;14.50;;;;;;10119372;29;20217;-74
2023/05/08 04:27:36;;;;;;;16.97;10.87;;;6.60;95.30;;;;;;10119299;29;20206;-75
2023/05/08 04:32:59;;;;;;;18.77;10.47;;;6.80;95.00;;;;;;10118851;29;20239;-74
2023/05/08 04:38:20;;;;;;;15.53;9.43;;;6.90;94.70;;;;;;10104906;29;20286;-74
2023/05/08 04:43:41;;;;;;;11.30;8.27;;;7.00;92.60;;;;;;10118377;29;20338;-74
2023/05/08 04:49:02;;;;;;;16.93;8.33;;;7.10;93.10;;;;;;10117975;29;20457;-77
2023/05/08 04:54:24;;;;;;;13.20;7.67;;;7.30;93.10;;;;;;10106492;29;20235;-75
2023/05/08 04:59:45;;;;;;;16.27;8.17;;;7.50;93.30;;;;;;10118073;29;20196;-75
2023/05/08 05:05:07;;;;;;;13.13;8.43;;;7.60;93.40;;;;;;10118023;29;20271;-75
2023/05/08 05:10:28;;;;;;;15.33;8.93;;;7.70;93.30;;;;;;10120098;29;20202;-76
2023/05/08 05:15:53;;;;;;;19.60;10.87;;;8.00;92.80;;;;;;10117665;29;20288;-78
2023/05/08 05:21:15;;;;;;;15.77;9.17;;;8.30;91.30;;;;;;10117249;29;20212;-75
2023/05/08 05:26:36;;;;;;;18.10;9.07;;;8.50;90.50;;;;;;10130419;29;20231;-75
2023/05/08 05:31:58;;;;;;;11.97;7.50;;;8.70;85.40;;;;;;10117998;29;20292;-74
2023/05/08 05:37:19;;;;;;;13.40;5.87;;;8.90;83.70;;;;;;10116568;29;20218;-75
2023/05/08 05:42:40;;;;;;;11.10;6.07;;;9.10;77.80;;;;;;10093543;29;20293;-78
2023/05/08 05:48:02;;;;;;;9.07;6.10;;;9.50;89.70;;;;;;10091313;29;20200;-79
2023/05/08 05:53:24;;;;;;;7.63;5.20;;;9.80;68.90;;;;;;10111510;29;20267;-76
2023/05/08 05:58:46;;;;;;;7.57;5.10;;;10.20;58.40;;;;;;10116785;29;20204;-75
2023/05/08 06:04:08;;;;;;;6.97;5.30;;;10.50;51.00;;;;;;10116612;29;20273;-78
2023/05/08 06:09:29;;;;;;;12.15;5.78;;;10.80;45.20;;;;;;10115809;29;20229;-82
2023/05/08 06:14:51;;;;;;;10.90;5.23;;;11.20;38.10;;;;;;10117254;29;20272;-81
2023/05/08 06:20:12;;;;;;;8.02;4.72;;;11.60;33.30;;;;;;10117364;29;20505;-77
2023/05/08 06:25:33;;;;;;;12.23;6.95;;;12.30;29.20;;;;;;10135436;29;20398;-77
2023/05/08 06:30:55;;;;;;;11.68;5.53;;;12.90;25.70;;;;;;10124036;29;20239;-81
2023/05/08 06:36:16;;;;;;;12.50;5.18;;;13.70;22.50;;;;;;10123739;29;20245;-79
2023/05/08 06:41:37;;;;;;;7.45;5.30;;;14.60;18.80;;;;;;10123107;29;20205;-80
2023/05/08 06:46:58;;;;;;;10.05;5.07;;;15.30;15.90;;;;;;10136408;29;20192;-82
2023/05/08 06:52:20;;;;;;;20.00;7.47;;;16.00;13.90;;;;;;10122304;29;20274;-77
2023/05/08 06:57:41;;;;;;;14.93;6.13;;;16.40;12.90;;;;;;10123515;29;20213;-78
2023/05/08 07:03:02;;;;;;;17.65;6.63;;;16.80;11.50;;;;;;10123501;29;20208;-77
2023/05/08 07:08:24;;;;;;;12.65;6.13;;;17.30;9.80;;;;;;10121228;29;20345;-81
2023/05/08 07:13:47;;;;;;;11.80;4.80;;;17.60;8.30;;;;;;10087862;29;20222;-78
2023/05/08 07:19:08;;;;;;;8.07;5.03;;;18.00;7.60;;;;;;10124904;29;20198;-77
2023/05/08 07:24:29;;;;;;;7.32;4.72;;;18.70;6.50;;;;;;10125328;29;20274;-77
2023/05/08 07:29:51;;;;;;;8.15;4.50;;;19.20;4.90;;;;;;10107689;29;20250;-82
2023/05/08 07:35:12;;;;;;;8.05;3.80;;;19.60;99.90;;;;;;10097627;29;20304;-79
2023/05/08 07:40:33;;;;;;;6.90;4.55;;;20.00;99.90;;;;;;10131310;29;20254;-81
2023/05/08 07:45:55;;;;;;;8.90;4.20;;;20.00;99.90;;;;;;10116231;29;20412;-78
2023/05/08 07:51:16;;;;;;;6.35;4.03;;;20.30;99.90;;;;;;10113311;29;20254;-80
2023/05/08 07:56:37;;;;;;;9.32;4.50;;;20.60;99.90;;;;;;10114954;29;20209;-80
2023/05/08 08:01:58;;;;;;;11.07;4.97;;;21.20;99.90;;;;;;10116477;29;20194;-83
2023/05/08 08:07:19;;;;;;;16.88;4.10;;;21.50;99.90;;;;;;10128378;29;20232;-78
2023/05/08 08:12:40;;;;;;;5.43;2.80;;;21.80;99.90;;;;;;10114725;29;20299;-80
2023/05/08 08:18:02;;;;;;;2.75;2.33;;;21.90;99.90;;;;;;10115981;29;20216;-81
2023/05/08 08:23:23;;;;;;;4.13;2.10;;;22.10;99.90;;;;;;10114533;29;20205;-76
2023/05/08 08:28:44;;;;;;;3.30;1.98;;;21.70;99.90;;;;;;10113448;29;20237;-82
2023/05/08 08:34:06;;;;;;;5.25;2.10;;;21.80;99.90;;;;;;10118072;29;20234;-76
2023/05/08 08:39:34;;;;;;;7.72;2.50;;;22.20;99.90;;;;;;10112682;29;20202;-79
2023/05/08 08:44:55;;;;;;;3.70;2.10;;;22.80;99.90;;;;;;10117027;29;20573;-77
2023/05/08 08:50:19;;;;;;;3.03;2.60;;;23.20;99.90;;;;;;10119834;29;20550;-80
2023/05/08 08:55:44;;;;;;;6.65;3.03;;;23.50;99.90;;;;;;10105553;29;20233;-75
2023/05/08 09:01:08;;;;;;;8.00;2.53;;;23.00;99.90;;;;;;10120979;29;20206;-82
2023/05/08 09:06:29;;;;;;;6.20;2.20;;;23.50;99.90;;;;;;10118766;29;20550;-80
2023/05/08 09:11:51;;;;;;;4.13;2.13;;;23.70;99.90;;;;;;10088739;29;20321;-77
2023/05/08 09:17:13;;;;;;;2.88;1.88;;;23.30;99.90;;;;;;10106399;29;20289;-79
2023/05/08 09:22:37;;;;;;;4.35;2.05;;;23.20;99.90;;;;;;10113914;29;20218;-81
2023/05/08 09:28:17;;;;;;;4.38;2.38;;;23.20;99.90;;;;;;10098244;29;20225;-81
2023/05/08 09:33:44;;;;;;;6.00;1.80;;;23.30;99.90;;;;;;10073458;29;20253;-76
2023/05/08 09:39:12;;;;;;;3.50;2.13;;;23.60;99.90;;;;;;10086829;29;20209;-77
2023/05/08 09:44:48;;;;;;;5.80;2.17;;;23.90;99.90;;;;;;10110529;29;20201;-82
2023/05/08 09:50:10;;;;;;;8.27;2.90;;;24.40;99.90;;;;;;10112083;29;20213;-77
2023/05/08 09:55:46;;;;;;;2.83;2.13;;;24.40;99.90;;;;;;10108792;29;20392;-78
2023/05/08 10:01:29;;;;;;;4.68;2.50;;;24.30;99.90;;;;;;10110789;29;20190;-77
2023/05/08 10:06:59;;;;;;;3.97;2.55;;;24.30;99.90;;;;;;10098270;29;20417;-79
2023/05/08 10:12:21;;;;;;;3.40;2.10;;;24.50;99.90;;;;;;10072895;29;20219;-81
2023/05/08 10:18:06;;;;;;;4.25;2.45;;;24.70;99.90;;;;;;10118187;29;20391;-78
2023/05/08 10:23:28;;;;;;;4.43;2.20;;;24.60;99.90;;;;;;10107412;29;20261;-78
2023/05/08 10:29:07;;;;;;;2.65;2.03;;;24.80;99.90;;;;;;10108309;29;20246;-76
2023/05/08 10:34:31;;;;;;;3.67;2.22;;;24.80;99.90;;;;;;10109304;29;20242;-76
2023/05/08 10:39:54;;;;;;;2.80;1.92;;;24.70;99.90;;;;;;10110942;29;20206;-80
2023/05/08 10:45:15;;;;;;;3.40;2.15;;;25.00;99.90;;;;;;10111570;29;20596;-79
2023/05/08 10:50:41;;;;;;;3.72;2.20;;;24.70;99.90;;;;;;10147586;29;20217;-76
2023/05/08 10:56:03;;;;;;;3.88;2.05;;;24.80;99.90;;;;;;10152785;29;20393;-75
2023/05/08 11:01:25;;;;;;;5.85;2.15;;;25.10;99.90;;;;;;10143694;29;20449;-76
2023/05/08 11:06:47;;;;;;;5.82;2.53;;;24.60;99.90;;;;;;10115136;29;20206;-80
2023/05/08 11:12:18;;;;;;;3.55;2.50;;;24.70;99.90;;;;;;10121651;29;20245;-80
2023/05/08 11:17:45;;;;;;;3.10;1.90;;;24.80;99.90;;;;;;10120803;29;20435;-79
2023/05/08 11:23:25;;;;;;;5.57;2.60;;;24.50;99.90;;;;;;10119885;29;20220;-79
2023/05/08 11:28:53;;;;;;;3.08;2.28;;;23.90;99.90;;;;;;10118110;29;20246;-75
2023/05/08 11:34:42;;;;;;;3.95;2.47;;;23.80;99.90;;;;;;10118138;29;20304;-77
2023/05/08 11:40:46;;;;;;;3.28;2.70;;;24.20;99.90;;;;;;10116497;29;20217;-76
2023/05/08 11:46:14;;;;;;;4.82;2.53;;;24.50;99.90;;;;;;10115348;29;20487;-77
2023/05/08 11:51:37;;;;;;;4.90;1.85;;;24.30;99.90;;;;;;10121143;29;20221;-76
2023/05/08 11:56:58;;;;;;;3.78;2.35;;;24.10;99.90;;;;;;10144263;29;20213;-79
2023/05/08 12:02:40;;;;;;;3.72;2.10;;;24.10;99.90;;;;;;10136870;29;20230;-77
2023/05/08 12:08:03;;;;;;;3.38;1.80;;;24.20;99.90;;;;;;10120428;29;20209;-77
2023/05/08 12:13:26;;;;;;;5.15;2.30;;;24.20;99.90;;;;;;10095983;29;20262;-75
2023/05/08 12:18:51;;;;;;;5.03;2.15;;;24.50;99.90;;;;;;10115070;29;20202;-75
2023/05/08 12:24:12;;;;;;;3.97;2.67;;;24.20;99.90;;;;;;10116748;29;20257;-75
2023/05/08 12:29:37;;;;;;;2.35;2.00;;;24.10;99.90;;;;;;10111167;29;20246;-78
2023/05/08 12:34:59;;;;;;;4.10;2.50;;;23.50;99.90;;;;;;10078076;29;20238;-73
2023/05/08 12:40:28;;;;;;;6.32;2.30;;;23.70;99.90;;;;;;10081271;29;20209;-75
2023/05/08 12:45:51;;;;;;;6.30;2.30;;;23.70;99.90;;;;;;10104799;29;20238;-77
2023/05/08 12:51:13;;;;;;;7.32;2.55;;;23.70;99.90;;;;;;10116189;29;20270;-75
2023/05/08 12:56:40;;;;;;;4.90;3.75;;;23.60;99.90;;;;;;10118004;29;20241;-82
2023/05/08 13:02:02;;;;;;;4.80;2.17;;;23.40;99.90;;;;;;10115149;29;20214;-79
2023/05/08 13:07:23;;;;;;;5.47;2.78;;;;;;;;;;10118665;29;20209;-79
2023/05/08 13:12:45;;;;;;;3.72;2.50;;;22.90;99.90;;;;;;10118978;29;20237;-82
2023/05/08 13:18:06;;;;;;;6.57;2.25;;;22.80;99.90;;;;;;10130749;29;20288;-80
2023/05/08 13:23:28;;;;;;;3.20;2.00;;;22.60;99.90;;;;;;10114085;29;20201;-81
2023/05/08 13:28:49;;;;;;;7.72;2.35;;;;;;;;;;10112773;29;20240;-78
2023/05/08 13:34:10;;;;;;;3.88;2.03;;;22.60;99.90;;;;;;10112036;29;20252;-78
2023/05/08 13:39:36;;;;;;;3.55;2.22;;;22.60;99.90;;;;;;10116893;29;20344;-84
2023/05/08 13:44:57;;;;;;;3.85;2.38;;;22.60;99.90;;;;;;10132818;29;20380;-79
2023/05/08 13:50:20;;;;;;;5.28;2.40;;;;;;;;;;10127255;29;20293;-76
2023/05/08 13:55:41;;;;;;;8.25;2.40;;;22.20;99.90;;;;;;10128782;29;20487;-80
2023/05/08 14:01:02;;;;;;;2.90;2.10;;;21.60;99.90;;;;;;10119446;29;20218;-76
2023/05/08 14:06:31;;;;;;;5.65;2.47;;;21.40;99.90;;;;;;10104876;29;20284;-75
2023/05/08 14:11:52;;;;;;;4.57;2.55;;;21.10;99.90;;;;;;10124416;29;20399;-74
2023/05/08 14:17:13;;;;;;;2.25;1.83;;;21.10;99.90;;;;;;10117134;29;20518;-74
2023/05/08 14:22:34;;;;;;;4.20;2.45;;;21.10;99.90;;;;;;10123826;29;20328;-74
2023/05/08 14:27:55;;;;;;;5.60;2.53;;;21.00;99.90;;;;;;10118468;29;20591;-75
2023/05/08 14:33:16;;;;;;;3.08;2.53;;;21.00;99.90;;;;;;10123638;29;20316;-75
2023/05/08 14:38:38;;;;;;;4.68;2.03;;;20.70;99.90;;;;;;10108746;29;20543;-74
2023/05/08 14:44:00;;;;;;;8.68;2.35;;;20.80;99.90;;;;;;10109896;29;20449;-73
2023/05/08 14:49:21;;;;;;;5.45;2.30;;;20.70;99.90;;;;;;10130449;29;20236;-77
2023/05/08 14:54:51;;;;;;;3.83;2.30;;;20.30;99.90;;;;;;10124661;29;20321;-77
2023/05/08 15:00:14;;;;;;;3.00;2.03;;;20.30;99.90;;;;;;10118129;29;20205;-77
2023/05/08 15:05:35;;;;;;;8.75;2.17;;;20.10;99.90;;;;;;10119874;29;20206;-79
2023/05/08 15:10:56;;;;;;;2.67;2.28;;;20.00;99.90;;;;;;10115676;29;20276;-75
2023/05/08 15:16:17;;;;;;;4.93;2.25;;;19.80;99.90;;;;;;10114873;29;20589;-74
2023/05/08 15:21:38;;;;;;;3.70;2.08;;;19.60;99.90;;;;;;10124718;29;20238;-79
2023/05/08 15:26:59;;;;;;;4.20;2.65;;;19.60;99.90;;;;;;10130933;29;20241;-74
2023/05/08 15:32:21;;;;;;;3.13;2.05;;;19.40;99.90;;;;;;10120703;29;20275;-77
2023/05/08 15:37:42;;;;;;;5.07;2.13;;;19.40;99.90;;;;;;10115899;29;20222;-77
2023/05/08 15:43:03;;;;;;;5.43;2.25;;;19.40;99.90;;;;;;10098734;29;20211;-77
2023/05/08 15:48:24;;;;;;;5.25;1.92;;;19.30;99.90;;;;;;10113336;29;20200;-78
2023/05/08 15:53:45;;;;;;;2.88;2.60;;;19.20;99.90;;;;;;10080793;29;20258;-75
2023/05/08 15:59:06;;;;;;;10.30;2.85;;;19.10;99.90;;;;;;10088669;29;20225;-78
2023/05/08 16:04:28;;;;;;;4.32;3.13;;;18.90;99.90;;;;;;10104747;29;20210;-80
2023/05/08 16:09:49;;;;;;;5.07;2.83;;;18.90;99.90;;;;;;10090067;29;20435;-79
2023/05/08 16:15:10;;;;;;;3.00;2.50;;;18.70;99.90;;;;;;10098329;29;20229;-80
2023/05/08 16:20:31;;;;;;;5.55;2.15;;;18.50;99.90;;;;;;10104070;29;20209;-79
2023/05/08 16:25:53;;;;;;;7.38;2.13;;;18.50;99.90;;;;;;10121654;29;20235;-78
2023/05/08 16:31:15;;;;;;;5.30;2.33;;;18.50;99.90;;;;;;10119778;29;20563;-78
2023/05/08 16:36:36;;;;;;;3.38;2.53;;;18.20;99.90;;;;;;10101461;29;20233;-75
2023/05/08 16:41:58;;;;;;;4.97;2.65;;;18.20;99.90;;;;;;10109798;29;20275;-75
2023/05/08 16:47:19;;;;;;;4.38;2.42;;;18.20;99.90;;;;;;10095296;29;20239;-76
2023/05/08 16:52:40;;;;;;;9.55;4.10;;;18.10;99.90;;;;;;10091838;29;20307;-76
2023/05/08 16:58:03;;;;;;;3.22;2.58;;;18.10;99.90;;;;;;10117476;29;20293;-75
2023/05/08 17:03:24;;;;;;;3.38;2.30;;;17.80;99.90;;;;;;10108256;29;20310;-77
2023/05/08 17:08:46;;;;;;;8.77;3.80;;;17.70;99.90;;;;;;10105307;29;20244;-75
2023/05/08 17:14:06;;;;;;;6.05;3.13;;;17.60;99.90;;;;;;10113764;29;20226;-76
2023/05/08 17:19:28;;;;;;;9.50;2.90;;;17.60;99.90;;;;;;10112472;29;20421;-75
2023/05/08 17:24:49;;;;;;;4.43;2.95;;;17.50;99.90;;;;;;10117408;29;20280;-74
2023/05/08 17:30:11;;;;;;;4.50;2.90;;;17.60;99.90;;;;;;10116043;29;20261;-76
2023/05/08 17:35:33;;;;;;;4.97;3.35;;;17.30;99.90;;;;;;10100547;29;20283;-74
2023/05/08 17:40:55;;;;;;;5.10;3.40;;;;;;;;;;10099355;29;20217;-76
2023/05/08 17:46:16;;;;;;;5.18;3.88;;;17.10;99.90;;;;;;10105629;29;20523;-75
2023/05/08 17:51:38;;;;;;;8.18;3.67;;;17.00;99.90;;;;;;10099743;29;20567;-79
2023/05/08 17:56:59;;;;;;;6.72;2.70;;;16.90;99.90;;;;;;10099081;29;20229;-75
2023/05/08 18:02:20;;;;;;;5.78;3.60;;;16.80;99.90;;;;;;10087300;29;20418;-75
2023/05/08 18:07:41;;;;;;;9.30;3.40;;;16.80;99.90;;;;;;10086094;29;20305;-75
2023/05/08 18:13:02;;;;;;;6.50;3.90;;;16.50;1.00;;;;;;10087837;29;20234;-75
2023/05/08 18:18:23;;;;;;;8.63;4.80;;;16.40;1.00;;;;;;10087052;29;20225;-75
2023/05/08 18:23:44;;;;;;;5.63;4.38;;;16.30;1.00;;;;;;10087807;29;20282;-75
2023/05/08 18:29:06;;;;;;;7.50;4.13;;;16.10;1.00;;;;;;10118354;29;20611;-76
2023/05/08 18:34:27;;;;;;;18.48;8.48;;;16.00;99.90;;;;;;10126948;29;20437;-76
2023/05/08 18:39:49;;;;;;;10.48;7.00;;;15.80;99.90;;;;;;10118857;29;20209;-76
2023/05/08 18:45:10;;;;;;;11.30;6.18;;;15.70;99.90;;;;;;10126504;29;20210;-78
2023/05/08 18:50:31;;;;;;;31.73;15.50;;;15.60;99.90;;;;;;10121607;29;20209;-77
2023/05/08 18:55:52;;;;;;;27.17;15.07;;;15.60;99.90;;;;;;10117366;29;20229;-76
2023/05/08 19:01:18;;;;;;;25.10;11.15;;;15.30;99.90;;;;;;10099645;29;20219;-77
2023/05/08 19:06:40;;;;;;;21.15;11.93;;;15.20;99.90;;;;;;10086047;29;20229;-76
2023/05/08 19:12:01;;;;;;;28.75;11.95;;;15.00;99.90;;;;;;10119740;29;20445;-77
2023/05/08 19:17:22;;;;;;;23.00;11.93;;;14.80;99.90;;;;;;10108612;29;20233;-76
2023/05/08 19:22:43;;;;;;;16.33;9.68;;;14.70;99.90;;;;;;10081462;29;20233;-75
2023/05/08 19:28:04;;;;;;;19.98;10.02;;;14.50;99.90;;;;;;10098867;29;20216;-75
2023/05/08 19:33:25;;;;;;;22.10;10.60;;;14.50;99.90;;;;;;10110230;29;20233;-76
2023/05/08 19:38:46;;;;;;;17.80;9.95;;;14.30;99.90;;;;;;10113801;29;20286;-76
2023/05/08 19:44:07;;;;;;;16.73;10.40;;;14.20;99.90;;;;;;10133323;29;20232;-75
2023/05/08 19:49:28;;;;;;;21.25;8.60;;;14.20;99.90;;;;;;10103598;29;20221;-76
2023/05/08 19:54:49;;;;;;;11.75;7.00;;;14.10;99.90;;;;;;10095793;29;20257;-77
2023/05/08 20:00:11;;;;;;;13.75;6.25;;;14.00;99.90;;;;;;10080852;29;20234;-77
2023/05/08 20:05:32;;;;;;;10.48;5.85;;;14.00;99.90;;;;;;10103741;29;20213;-77
2023/05/08 20:10:53;;;;;;;10.48;5.45;;;13.80;99.90;;;;;;10093601;29;20527;-75
2023/05/08 20:16:14;;;;;;;8.82;5.72;;;13.70;99.90;;;;;;10095649;29;20478;-76
2023/05/08 20:21:35;;;;;;;11.23;5.95;;;13.60;99.90;;;;;;10102226;29;20234;-78
2023/05/08 20:26:56;;;;;;;15.15;6.78;;;13.40;99.90;;;;;;10104428;29;20205;-75
2023/05/08 20:32:18;;;;;;;15.98;8.43;;;13.30;99.90;;;;;;10110181;29;20242;-76
2023/05/08 20:37:44;;;;;;;24.42;10.70;;;13.20;99.90;;;;;;10110155;29;20232;-77
2023/05/08 20:43:05;;;;;;;32.58;16.63;;;13.10;99.90;;;;;;10108109;29;20333;-76
2023/05/08 20:48:26;;;;;;;36.72;17.25;;;13.10;99.90;;;;;;10108701;29;20207;-74
2023/05/08 20:53:47;;;;;;;31.85;18.83;;;13.10;99.90;;;;;;10083778;29;20252;-78
2023/05/08 20:59:08;;;;;;;31.73;18.92;;;13.10;99.90;;;;;;10115431;29;20206;-76
2023/05/08 21:04:29;;;;;;;28.33;16.35;;;13.00;99.90;;;;;;10091689;29;20234;-78
2023/05/08 21:09:50;;;;;;;28.52;18.38;;;12.90;99.90;;;;;;10114081;29;20255;-78
2023/05/08 21:15:11;;;;;;;30.27;14.70;;;12.80;99.90;;;;;;10090890;29;20307;-78
2023/05/08 21:20:32;;;;;;;28.77;14.38;;;12.70;99.90;;;;;;10081499;29;20416;-77
2023/05/08 21:25:53;;;;;;;24.77;15.15;;;12.60;99.90;;;;;;10080584;29;20210;-76
2023/05/08 21:31:15;;;;;;;23.10;12.85;;;12.50;99.90;;;;;;10080649;29;20264;-78
2023/05/08 21:36:36;;;;;;;26.67;14.23;;;12.50;99.90;;;;;;10097131;29;20448;-79
2023/05/08 21:41:57;;;;;;;30.30;16.42;;;12.40;99.90;;;;;;10082968;29;20541;-80
2023/05/08 21:47:19;;;;;;;31.13;17.20;;;12.30;99.90;;;;;;10085084;29;20218;-77
2023/05/08 21:52:40;;;;;;;25.95;14.25;;;12.20;99.90;;;;;;10098836;29;20207;-79
2023/05/08 21:58:01;;;;;;;20.95;12.63;;;12.00;99.90;;;;;;10101328;29;20307;-78
2023/05/08 22:03:22;;;;;;;28.73;15.57;;;11.90;99.90;;;;;;10098606;29;20212;-77
2023/05/08 22:08:43;;;;;;;38.15;22.23;;;11.80;99.90;;;;;;10089390;29;20228;-77
2023/05/08 22:14:04;;;;;;;34.30;19.55;;;11.70;99.90;;;;;;10098719;29;20254;-76
2023/05/08 22:19:26;;;;;;;36.40;19.65;;;11.60;99.90;;;;;;10098037;29;20332;-76
2023/05/08 22:24:47;;;;;;;36.72;19.58;;;11.60;99.90;;;;;;10101006;29;20294;-78
2023/05/08 22:30:08;;;;;;;48.15;20.20;;;11.60;99.90;;;;;;10079315;29;20269;-77
2023/05/08 22:35:29;;;;;;;41.50;21.20;;;11.40;99.90;;;;;;10076636;29;20241;-78
2023/05/08 22:40:51;;;;;;;43.45;20.75;;;11.30;99.90;;;;;;10099538;29;20429;-78
2023/05/08 22:46:12;;;;;;;37.20;19.13;;;11.10;99.90;;;;;;10117451;29;20241;-76
2023/05/08 22:51:34;;;;;;;40.80;19.58;;;11.00;99.90;;;;;;10104746;29;20529;-75
2023/05/08 22:56:56;;;;;;;30.23;15.68;;;11.00;99.90;;;;;;10088330;29;20226;-75
2023/05/08 23:02:17;;;;;;;27.85;16.38;;;10.90;99.90;;;;;;10084528;29;20259;-74
2023/05/08 23:07:38;;;;;;;27.83;16.95;;;10.90;99.90;;;;;;10095723;29;20210;-75
2023/05/08 23:12:59;;;;;;;29.85;18.55;;;10.90;99.90;;;;;;10125080;29;20250;-76
2023/05/08 23:18:20;;;;;;;26.63;16.65;;;10.90;99.90;;;;;;10089467;29;20250;-75
2023/05/08 23:23:41;;;;;;;29.50;15.77;;;10.80;99.90;;;;;;10101577;29;20439;-77
2023/05/08 23:29:02;;;;;;;25.65;15.10;;;10.70;99.90;;;;;;10101032;29;20261;-74
2023/05/08 23:34:23;;;;;;;31.83;17.00;;;10.50;99.90;;;;;;10105928;29;20234;-75
2023/05/08 23:39:45;;;;;;;32.78;17.08;;;10.50;99.90;;;;;;10091756;29;20209;-75
2023/05/08 23:45:06;;;;;;;30.73;17.20;;;10.40;99.90;;;;;;10100381;29;20214;-75
2023/05/08 23:50:27;;;;;;;31.02;16.50;;;10.40;99.90;;;;;;10101118;29;20202;-75
2023/05/08 23:55:51;;;;;;;31.40;17.47;;;10.30;99.90;;;;;;10115736;29;20245;-76
